Terminal Aerodrome Forecast
Issued by NWS Cleveland, OH

Home | Current Version | Previous Version | Text Only | Print | Product List | Glossary On
Versions: 1 2 3 4 5 6 7 8 9 10 11 12
000
FTUS41 KCLE 181120
TAFMFD
TAF
KMFD 181120Z 1812/1912 19005KT P6SM FEW250
     FM181600 20010KT P6SM FEW250
     FM190000 18007KT P6SM SKC=

USA.gov is the U.S. government's official web portal to all federal, state and local government web resources and services.